Time;durP1;ratioP1;P1;durP2;ratioP2;P2;SDS_P1;SDS_P2;PMS_P1;PMS_P2;Temp;Humidity;BMP_temperature;BMP_pressure;BME280_temperature;BME280_humidity;BME280_pressure;Samples;Min_cycle;Max_cycle;Signal;HPM_P1;HPM_P2
2021/08/18 00:00:47;;;;;;;2.13;1.92;;;17.00;84.20;;;;;;4986926;28;20110;-80
2021/08/18 00:03:14;;;;;;;4.25;2.30;;;17.00;84.30;;;;;;4990296;28;20026;-81
2021/08/18 00:05:40;;;;;;;2.90;2.45;;;17.00;84.20;;;;;;4989582;28;20027;-80
2021/08/18 00:08:07;;;;;;;2.65;2.42;;;17.00;84.20;;;;;;4988610;28;20037;-79
2021/08/18 00:10:34;;;;;;;2.88;2.22;;;17.00;84.20;;;;;;4981972;28;20023;-80
2021/08/18 00:12:59;;;;;;;2.20;1.95;;;17.00;84.20;;;;;;4989861;28;20049;-81
2021/08/18 00:15:25;;;;;;;4.10;2.53;;;16.90;84.20;;;;;;4985949;28;20461;-80
2021/08/18 00:18:00;;;;;;;3.53;2.50;;;16.90;84.30;;;;;;4986489;28;20113;-80
2021/08/18 00:20:29;;;;;;;4.50;2.20;;;17.00;84.30;;;;;;4990197;28;20034;-81
2021/08/18 00:22:55;;;;;;;3.67;2.67;;;17.00;84.40;;;;;;4985700;28;20034;-81
2021/08/18 00:25:21;;;;;;;4.78;3.00;;;17.00;84.30;;;;;;4980816;28;20030;-79
2021/08/18 00:27:47;;;;;;;3.63;2.72;;;17.00;84.40;;;;;;4989404;28;20023;-80
2021/08/18 00:30:13;;;;;;;2.92;1.90;;;17.00;84.50;;;;;;4984068;28;20466;-81
2021/08/18 00:32:38;;;;;;;2.28;2.00;;;17.00;84.50;;;;;;4989394;28;20026;-82
2021/08/18 00:35:04;;;;;;;3.30;2.45;;;16.90;84.50;;;;;;4990837;28;20389;-82
2021/08/18 00:37:33;;;;;;;4.25;2.90;;;17.00;84.40;;;;;;4989633;28;20501;-82
2021/08/18 00:39:59;;;;;;;3.88;3.20;;;17.00;84.50;;;;;;4992299;28;20038;-81
2021/08/18 00:42:24;;;;;;;3.85;2.72;;;17.00;84.50;;;;;;4990688;28;20065;-81
2021/08/18 00:44:50;;;;;;;2.97;2.65;;;17.00;84.50;;;;;;4985854;28;20429;-82
2021/08/18 00:47:18;;;;;;;3.38;2.55;;;17.00;84.40;;;;;;4991069;28;20022;-82
2021/08/18 00:49:44;;;;;;;4.07;3.40;;;17.00;84.40;;;;;;4989422;28;20544;-82
2021/08/18 00:52:10;;;;;;;3.85;2.97;;;17.00;84.40;;;;;;4992691;28;20058;-81
2021/08/18 00:54:35;;;;;;;4.75;2.90;;;17.00;84.60;;;;;;4987274;28;20023;-81
2021/08/18 00:57:02;;;;;;;3.33;2.20;;;17.00;84.60;;;;;;4991016;28;20382;-82
2021/08/18 00:59:29;;;;;;;1.80;1.65;;;17.00;84.60;;;;;;4991845;28;20030;-83
2021/08/18 01:01:55;;;;;;;2.67;2.15;;;17.00;84.50;;;;;;4987334;28;20109;-82
2021/08/18 01:04:21;;;;;;;3.25;2.17;;;17.00;84.60;;;;;;4993568;28;20154;-82
2021/08/18 01:06:46;;;;;;;3.33;2.50;;;17.00;84.60;;;;;;4989866;28;20588;-81
2021/08/18 01:09:17;;;;;;;3.75;2.75;;;17.00;84.50;;;;;;4992855;28;20548;-81
2021/08/18 01:11:45;;;;;;;2.72;2.25;;;17.00;84.60;;;;;;4989104;28;20073;-82
2021/08/18 01:14:12;;;;;;;2.50;2.20;;;17.00;84.70;;;;;;4992439;28;20030;-81
2021/08/18 01:16:42;;;;;;;3.63;2.50;;;17.00;84.60;;;;;;4987847;28;20093;-83
2021/08/18 01:19:09;;;;;;;3.28;2.60;;;17.00;84.50;;;;;;4989757;28;20034;-82
2021/08/18 01:21:36;;;;;;;2.45;1.90;;;17.00;84.50;;;;;;4985921;28;20048;-82
2021/08/18 01:24:02;;;;;;;1.88;1.50;;;17.00;84.50;;;;;;4987942;28;20026;-84
2021/08/18 01:26:29;;;;;;;2.88;2.40;;;17.00;84.50;;;;;;4993494;28;20452;-85
2021/08/18 01:28:56;;;;;;;3.08;2.33;;;17.00;84.60;;;;;;4989400;28;20023;-81
2021/08/18 01:31:22;;;;;;;2.90;2.20;;;17.00;84.70;;;;;;4991719;28;20033;-81
2021/08/18 01:33:48;;;;;;;2.75;2.40;;;16.90;84.70;;;;;;4987346;28;20022;-81
2021/08/18 01:36:13;;;;;;;4.03;2.60;;;16.90;84.80;;;;;;4991936;28;20096;-84
2021/08/18 01:38:39;;;;;;;3.13;2.00;;;16.90;84.80;;;;;;4990542;28;20030;-81
2021/08/18 01:41:04;;;;;;;4.25;2.33;;;17.00;84.80;;;;;;4988542;28;20042;-81
2021/08/18 01:43:30;;;;;;;2.70;2.00;;;17.00;84.80;;;;;;4989797;28;20018;-81
2021/08/18 01:45:56;;;;;;;2.58;2.28;;;17.00;84.80;;;;;;4983652;28;20038;-81
2021/08/18 01:48:24;;;;;;;5.15;3.10;;;17.00;84.70;;;;;;4987619;28;20089;-79
2021/08/18 01:50:54;;;;;;;3.80;2.90;;;17.00;84.70;;;;;;4990763;28;20034;-80
2021/08/18 01:53:25;;;;;;;3.63;2.70;;;17.00;84.80;;;;;;4987287;28;20564;-81
2021/08/18 01:55:51;;;;;;;3.28;2.00;;;17.00;84.80;;;;;;4987342;28;20035;-81
2021/08/18 01:58:17;;;;;;;3.83;2.30;;;17.00;84.80;;;;;;4992248;28;20048;-82
2021/08/18 02:00:44;;;;;;;3.65;2.80;;;17.00;84.80;;;;;;4988334;28;20486;-81
2021/08/18 02:03:09;;;;;;;2.97;2.47;;;17.00;84.80;;;;;;4989339;28;20015;-81
2021/08/18 02:05:35;;;;;;;3.08;2.50;;;17.00;84.70;;;;;;4990973;28;20172;-81
2021/08/18 02:08:01;;;;;;;3.25;2.70;;;17.00;84.70;;;;;;4987588;28;20021;-81
2021/08/18 02:10:28;;;;;;;7.47;2.92;;;17.00;84.70;;;;;;4990479;28;20027;-81
2021/08/18 02:12:54;;;;;;;2.80;1.67;;;17.00;84.70;;;;;;4980902;28;20050;-81
2021/08/18 02:15:23;;;;;;;2.97;2.03;;;17.00;84.80;;;;;;4988437;28;20054;-80
2021/08/18 02:17:50;;;;;;;3.63;2.25;;;17.00;84.70;;;;;;4987949;28;20042;-81
2021/08/18 02:20:19;;;;;;;2.90;2.35;;;17.00;84.60;;;;;;4989127;28;20133;-81
2021/08/18 02:22:44;;;;;;;2.40;2.20;;;17.00;84.60;;;;;;4987914;28;20462;-81
2021/08/18 02:25:11;;;;;;;3.25;2.20;;;17.00;84.60;;;;;;4986982;28;20034;-80
2021/08/18 02:27:37;;;;;;;2.25;1.98;;;17.00;84.50;;;;;;4981589;28;20022;-81
2021/08/18 02:30:04;;;;;;;4.90;2.75;;;17.00;84.50;;;;;;4987587;28;20113;-82
2021/08/18 02:32:30;;;;;;;5.32;3.17;;;17.00;84.60;;;;;;4991908;28;20046;-81
2021/08/18 02:34:55;;;;;;;2.90;2.33;;;17.00;84.70;;;;;;4991147;28;20030;-82
2021/08/18 02:37:21;;;;;;;2.10;1.90;;;17.00;84.80;;;;;;4991076;28;20466;-81
2021/08/18 02:39:47;;;;;;;1.83;1.65;;;16.90;84.80;;;;;;4990429;28;20405;-83
2021/08/18 02:42:12;;;;;;;3.20;2.60;;;16.90;84.70;;;;;;4993037;28;20527;-81
2021/08/18 02:44:38;;;;;;;2.40;1.70;;;16.90;84.70;;;;;;4985804;28;20433;-80
2021/08/18 02:47:04;;;;;;;2.78;1.90;;;17.00;84.80;;;;;;4986599;28;20449;-82
2021/08/18 02:49:29;;;;;;;3.90;2.20;;;16.90;84.60;;;;;;4993741;28;20421;-81
2021/08/18 02:51:55;;;;;;;3.10;1.90;;;17.00;84.60;;;;;;4985053;28;20072;-81
2021/08/18 02:54:23;;;;;;;2.40;2.00;;;16.90;84.60;;;;;;4991114;28;20584;-81
2021/08/18 02:56:50;;;;;;;2.35;2.00;;;16.90;84.50;;;;;;4983392;28;20370;-80
2021/08/18 02:59:16;;;;;;;3.47;1.73;;;16.90;85.10;;;;;;4991529;28;20485;-79
2021/08/18 03:01:41;;;;;;;3.72;1.90;;;17.00;84.40;;;;;;4983829;28;20088;-81
2021/08/18 03:04:07;;;;;;;2.00;1.80;;;17.00;84.40;;;;;;4986972;28;20030;-80
2021/08/18 03:06:32;;;;;;;3.75;1.60;;;17.00;84.30;;;;;;4984893;28;20030;-79
2021/08/18 03:08:58;;;;;;;2.92;1.73;;;17.00;84.30;;;;;;4985834;28;20018;-79
2021/08/18 03:11:23;;;;;;;2.15;1.65;;;17.00;84.30;;;;;;4986823;28;20023;-80
2021/08/18 03:13:49;;;;;;;2.47;1.90;;;17.00;84.30;;;;;;4983730;28;20114;-81
2021/08/18 03:16:14;;;;;;;3.15;1.80;;;17.00;84.20;;;;;;4989984;28;20038;-83
2021/08/18 03:18:40;;;;;;;2.17;1.83;;;17.00;84.20;;;;;;4977668;28;20023;-80
2021/08/18 03:21:05;;;;;;;2.25;1.90;;;17.10;84.30;;;;;;4989618;28;20038;-80
2021/08/18 03:23:31;;;;;;;2.97;1.92;;;17.00;84.10;;;;;;4989170;28;20109;-79
2021/08/18 03:25:56;;;;;;;3.22;1.80;;;17.00;84.10;;;;;;4987707;28;20031;-80
2021/08/18 03:28:22;;;;;;;1.67;1.23;;;17.00;84.10;;;;;;4985187;28;20359;-80
2021/08/18 03:30:47;;;;;;;1.58;1.35;;;17.00;84.10;;;;;;4982064;28;20041;-80
2021/08/18 03:33:13;;;;;;;2.88;1.80;;;17.00;84.10;;;;;;4988176;28;20054;-80
2021/08/18 03:35:38;;;;;;;2.70;1.83;;;17.00;84.10;;;;;;4988515;28;20113;-80
2021/08/18 03:38:04;;;;;;;2.05;1.80;;;17.00;84.10;;;;;;4986318;28;20771;-80
2021/08/18 03:40:29;;;;;;;3.58;1.70;;;17.00;84.10;;;;;;4980315;28;20081;-80
2021/08/18 03:42:55;;;;;;;1.60;1.48;;;17.00;84.00;;;;;;4983602;28;20149;-84
2021/08/18 03:45:20;;;;;;;1.70;1.50;;;17.00;84.00;;;;;;4986400;28;20370;-81
2021/08/18 03:47:46;;;;;;;2.70;1.90;;;16.90;84.00;;;;;;4988257;28;20037;-81
2021/08/18 03:50:11;;;;;;;2.13;1.80;;;17.00;84.00;;;;;;4990925;28;20033;-82
2021/08/18 03:52:41;;;;;;;2.92;1.58;;;16.90;83.90;;;;;;4982613;28;20120;-82
2021/08/18 03:55:08;;;;;;;4.05;2.70;;;17.00;83.90;;;;;;4981520;28;20030;-82
2021/08/18 03:57:33;;;;;;;3.13;1.90;;;17.00;83.90;;;;;;4986969;28;20017;-82
2021/08/18 03:59:59;;;;;;;3.53;2.47;;;16.90;83.90;;;;;;4989123;28;20050;-82
2021/08/18 04:02:28;;;;;;;1.85;1.67;;;16.80;83.90;;;;;;4986020;28;20382;-83
2021/08/18 04:04:56;;;;;;;1.98;1.27;;;16.80;84.00;;;;;;4988879;28;20096;-82
2021/08/18 04:07:22;;;;;;;2.90;1.63;;;16.80;84.10;;;;;;4985863;28;20038;-83
2021/08/18 04:09:47;;;;;;;2.72;1.70;;;16.80;84.10;;;;;;4986834;28;20031;-82
2021/08/18 04:12:13;;;;;;;2.42;1.58;;;16.80;84.10;;;;;;4980773;28;20014;-82
2021/08/18 04:14:38;;;;;;;2.53;2.10;;;16.80;84.10;;;;;;4985738;28;20026;-81
2021/08/18 04:17:04;;;;;;;2.92;1.75;;;16.80;84.10;;;;;;4987364;28;20105;-81
2021/08/18 04:19:30;;;;;;;2.33;1.50;;;16.80;84.20;;;;;;4986672;28;20062;-81
2021/08/18 04:21:55;;;;;;;2.00;1.55;;;16.80;84.20;;;;;;4989739;28;20045;-82
2021/08/18 04:24:21;;;;;;;1.88;1.70;;;16.80;84.20;;;;;;4984784;28;20057;-81
2021/08/18 04:26:46;;;;;;;3.65;1.98;;;16.80;84.20;;;;;;4988502;28;20026;-83
2021/08/18 04:29:12;;;;;;;3.13;1.70;;;16.80;84.20;;;;;;4987035;28;20022;-81
2021/08/18 04:31:38;;;;;;;2.65;1.58;;;16.80;84.30;;;;;;4985979;28;20037;-82
2021/08/18 04:34:03;;;;;;;2.80;1.95;;;16.80;84.40;;;;;;4986118;28;20607;-81
2021/08/18 04:36:29;;;;;;;3.80;2.03;;;16.80;84.40;;;;;;4983898;28;20061;-83
2021/08/18 04:38:54;;;;;;;1.60;1.50;;;16.80;85.00;;;;;;4987227;28;20038;-82
2021/08/18 04:41:20;;;;;;;2.65;1.80;;;16.80;84.40;;;;;;4987764;28;20031;-82
2021/08/18 04:43:45;;;;;;;2.55;1.90;;;16.80;84.40;;;;;;4985423;28;20023;-85
2021/08/18 04:46:11;;;;;;;2.47;1.50;;;16.80;84.50;;;;;;4986571;28;20572;-81
2021/08/18 04:48:36;;;;;;;4.13;2.20;;;16.90;84.60;;;;;;4987943;28;20363;-83
2021/08/18 04:51:02;;;;;;;2.75;1.80;;;16.80;84.40;;;;;;4983330;28;20702;-82
2021/08/18 04:53:28;;;;;;;2.97;1.85;;;16.80;84.40;;;;;;4986009;28;20477;-82
2021/08/18 04:55:54;;;;;;;2.17;1.80;;;16.80;84.40;;;;;;4988439;28;20112;-81
2021/08/18 04:58:19;;;;;;;2.20;1.95;;;16.80;84.30;;;;;;4985827;28;20067;-83
2021/08/18 05:00:45;;;;;;;2.45;1.98;;;16.80;84.30;;;;;;4989219;28;20033;-81
2021/08/18 05:03:12;;;;;;;2.35;1.90;;;16.90;84.40;;;;;;4982941;28;20030;-82
2021/08/18 05:05:37;;;;;;;2.35;1.95;;;16.90;84.40;;;;;;4987619;28;20036;-82
2021/08/18 05:08:03;;;;;;;2.55;1.60;;;16.90;84.40;;;;;;4983859;28;20117;-82
2021/08/18 05:10:29;;;;;;;3.13;2.28;;;17.00;84.30;;;;;;4988657;28;20034;-82
2021/08/18 05:12:54;;;;;;;1.90;1.70;;;17.00;84.20;;;;;;4984758;28;20034;-81
2021/08/18 05:15:20;;;;;;;3.05;1.60;;;17.00;84.20;;;;;;4986390;28;20042;-80
2021/08/18 05:17:46;;;;;;;6.32;4.20;;;17.10;84.10;;;;;;4987833;28;20035;-80
2021/08/18 05:20:14;;;;;;;3.83;2.25;;;17.10;84.00;;;;;;4988641;28;20443;-80
2021/08/18 05:22:40;;;;;;;2.65;1.50;;;17.10;84.00;;;;;;4982737;28;20026;-80
2021/08/18 05:25:05;;;;;;;3.03;2.00;;;17.10;83.90;;;;;;4991902;28;20387;-79
2021/08/18 05:27:31;;;;;;;3.50;1.73;;;17.20;83.90;;;;;;4989069;28;20611;-79
2021/08/18 05:29:56;;;;;;;2.35;1.50;;;17.20;83.90;;;;;;4982753;28;20394;-79
2021/08/18 05:32:22;;;;;;;2.38;1.80;;;17.20;83.90;;;;;;4990825;28;20018;-79
2021/08/18 05:34:47;;;;;;;2.22;1.58;;;17.20;83.90;;;;;;4990777;28;20429;-80
2021/08/18 05:37:13;;;;;;;3.60;1.60;;;17.20;83.80;;;;;;4991117;28;20023;-81
2021/08/18 05:39:38;;;;;;;2.13;1.50;;;17.20;83.70;;;;;;4986133;28;20185;-80
2021/08/18 05:42:04;;;;;;;2.22;1.60;;;17.30;83.80;;;;;;4988980;28;20037;-81
2021/08/18 05:44:30;;;;;;;2.10;1.50;;;17.30;83.70;;;;;;4986436;28;20042;-79
2021/08/18 05:46:55;;;;;;;2.70;1.90;;;17.30;83.60;;;;;;4984245;28;20363;-79
2021/08/18 05:49:21;;;;;;;2.50;1.88;;;17.30;83.60;;;;;;4992521;28;20029;-78
2021/08/18 05:51:48;;;;;;;2.40;1.80;;;17.40;83.60;;;;;;4989032;28;20027;-79
2021/08/18 05:54:14;;;;;;;2.47;1.95;;;17.40;83.60;;;;;;4987269;28;20566;-81
2021/08/18 05:56:39;;;;;;;2.80;1.65;;;17.40;83.50;;;;;;4983331;28;20022;-80
2021/08/18 05:59:05;;;;;;;2.78;1.58;;;17.40;83.50;;;;;;4991312;28;20068;-82
2021/08/18 06:01:30;;;;;;;3.60;1.95;;;17.50;83.50;;;;;;4985371;28;20030;-82
2021/08/18 06:03:56;;;;;;;2.00;1.65;;;17.50;83.30;;;;;;4992788;28;20371;-81
2021/08/18 06:06:21;;;;;;;2.55;1.83;;;17.50;83.30;;;;;;4987999;28;20022;-80
2021/08/18 06:08:47;;;;;;;2.95;1.90;;;17.50;83.20;;;;;;4993418;28;20429;-81
2021/08/18 06:11:12;;;;;;;2.88;1.88;;;17.50;83.20;;;;;;4978885;28;20035;-78
2021/08/18 06:13:38;;;;;;;3.22;1.70;;;17.50;83.20;;;;;;4990961;28;20496;-80
2021/08/18 06:16:04;;;;;;;2.50;1.40;;;17.50;83.20;;;;;;4991531;28;20042;-80
2021/08/18 06:18:30;;;;;;;2.38;1.65;;;17.50;83.20;;;;;;4982641;28;20037;-80
2021/08/18 06:20:55;;;;;;;2.05;1.50;;;17.60;83.20;;;;;;4986153;28;20026;-80
2021/08/18 06:23:24;;;;;;;2.92;1.75;;;17.60;83.10;;;;;;4991173;28;20022;-81
2021/08/18 06:25:51;;;;;;;2.20;1.75;;;17.60;83.00;;;;;;4991002;28;20030;-80
2021/08/18 06:28:17;;;;;;;2.10;1.60;;;17.60;82.90;;;;;;4990654;28;20026;-81
2021/08/18 06:30:43;;;;;;;1.92;1.38;;;17.70;82.90;;;;;;4982119;28;20018;-80
2021/08/18 06:33:08;;;;;;;2.55;1.63;;;17.70;82.90;;;;;;4989141;28;20034;-80
2021/08/18 06:35:34;;;;;;;1.60;1.35;;;17.70;82.80;;;;;;4986048;28;20022;-80
2021/08/18 06:37:59;;;;;;;3.95;1.75;;;17.70;82.80;;;;;;4986131;28;20029;-79
2021/08/18 06:40:25;;;;;;;2.65;1.90;;;17.70;82.90;;;;;;4987334;28;20113;-80
2021/08/18 06:42:50;;;;;;;1.70;1.60;;;17.70;83.00;;;;;;4983679;28;20050;-77
2021/08/18 06:45:17;;;;;;;2.42;1.70;;;17.70;82.90;;;;;;4981489;28;20158;-77
2021/08/18 06:47:43;;;;;;;3.13;1.40;;;17.70;82.90;;;;;;4987812;28;20358;-76
2021/08/18 06:50:09;;;;;;;1.77;1.30;;;17.70;82.80;;;;;;4986392;28;20169;-78
2021/08/18 06:52:36;;;;;;;1.98;1.40;;;17.80;82.80;;;;;;4991961;28;20117;-78
2021/08/18 06:55:01;;;;;;;2.55;1.50;;;17.80;82.70;;;;;;4987559;28;20038;-79
2021/08/18 06:57:27;;;;;;;2.55;1.50;;;17.80;82.70;;;;;;4991975;28;20019;-82
2021/08/18 06:59:53;;;;;;;2.15;1.38;;;17.80;82.50;;;;;;4990005;28;20053;-77
2021/08/18 07:02:18;;;;;;;1.30;1.10;;;17.90;82.50;;;;;;4989361;28;20026;-77
2021/08/18 07:04:44;;;;;;;1.50;1.20;;;17.90;82.40;;;;;;4987702;28;20025;-77
2021/08/18 07:07:09;;;;;;;2.10;1.40;;;18.00;82.30;;;;;;4985601;28;20025;-79
2021/08/18 07:09:35;;;;;;;1.65;1.30;;;18.00;82.20;;;;;;4985960;28;20478;-79
2021/08/18 07:12:00;;;;;;;2.65;1.80;;;18.10;82.10;;;;;;4986604;28;20034;-78
2021/08/18 07:14:26;;;;;;;2.05;1.52;;;18.10;82.00;;;;;;4988441;28;20041;-79
2021/08/18 07:16:53;;;;;;;2.63;1.48;;;18.10;82.00;;;;;;4985176;28;20127;-79
2021/08/18 07:19:19;;;;;;;3.50;1.27;;;18.10;82.00;;;;;;4988971;28;20038;-78
2021/08/18 07:21:44;;;;;;;1.77;1.27;;;18.10;81.90;;;;;;4990322;28;20762;-76
2021/08/18 07:24:10;;;;;;;2.08;1.50;;;18.10;81.80;;;;;;4987161;28;20485;-78
2021/08/18 07:26:35;;;;;;;1.65;1.30;;;18.20;81.70;;;;;;4982940;28;20018;-79
2021/08/18 07:29:01;;;;;;;1.58;1.23;;;18.20;81.70;;;;;;4984356;28;20039;-79
2021/08/18 07:31:27;;;;;;;2.15;1.63;;;18.20;81.70;;;;;;4984183;28;20042;-78
2021/08/18 07:33:53;;;;;;;1.77;1.60;;;18.10;81.70;;;;;;4985088;28;20026;-78
2021/08/18 07:36:19;;;;;;;3.20;1.70;;;18.10;81.70;;;;;;4987014;28;20014;-78
2021/08/18 07:38:44;;;;;;;4.32;2.00;;;18.10;81.60;;;;;;4986442;28;20045;-79
2021/08/18 07:41:10;;;;;;;2.25;1.48;;;18.20;81.50;;;;;;4983978;28;20064;-78
2021/08/18 07:43:36;;;;;;;1.85;1.55;;;18.20;81.40;;;;;;4987375;28;20465;-78
2021/08/18 07:46:02;;;;;;;1.60;1.10;;;18.20;81.40;;;;;;4981905;28;20054;-78
2021/08/18 07:48:29;;;;;;;2.20;1.40;;;18.20;81.30;;;;;;4984820;28;20023;-80
2021/08/18 07:50:56;;;;;;;1.20;1.10;;;18.30;81.30;;;;;;4986232;28;20034;-79
2021/08/18 07:53:21;;;;;;;2.47;1.30;;;18.30;81.30;;;;;;4989873;28;20262;-79
2021/08/18 07:55:47;;;;;;;1.85;1.17;;;18.30;81.20;;;;;;4985232;28;20110;-77
2021/08/18 07:58:12;;;;;;;3.30;1.60;;;18.40;81.20;;;;;;4988300;28;20108;-78
2021/08/18 08:00:39;;;;;;;2.53;1.40;;;18.40;81.10;;;;;;4984785;28;20110;-78
2021/08/18 08:03:07;;;;;;;1.30;1.20;;;18.40;81.00;;;;;;4985805;28;20019;-77
2021/08/18 08:05:33;;;;;;;1.88;1.20;;;18.50;80.90;;;;;;4983705;28;20039;-77
2021/08/18 08:08:00;;;;;;;1.20;1.10;;;18.50;80.80;;;;;;4987109;28;20034;-79
2021/08/18 08:10:25;;;;;;;1.95;1.30;;;18.50;80.90;;;;;;4991456;28;20317;-78
2021/08/18 08:12:51;;;;;;;1.83;1.15;;;18.50;80.90;;;;;;4982690;28;20030;-77
2021/08/18 08:15:16;;;;;;;1.48;1.33;;;18.50;80.80;;;;;;4982379;28;20026;-78
2021/08/18 08:17:42;;;;;;;2.35;1.67;;;18.60;80.90;;;;;;4980250;28;20436;-78
2021/08/18 08:20:09;;;;;;;2.22;1.27;;;18.60;80.80;;;;;;4993019;28;20037;-79
2021/08/18 08:22:35;;;;;;;1.52;1.25;;;18.60;80.60;;;;;;4980347;28;20026;-77
2021/08/18 08:25:01;;;;;;;1.60;1.20;;;18.60;80.50;;;;;;4980610;28;20524;-78
2021/08/18 08:27:27;;;;;;;2.53;1.50;;;18.70;80.40;;;;;;4990346;28;20035;-77
2021/08/18 08:29:55;;;;;;;2.55;1.60;;;18.70;80.30;;;;;;4985751;28;20034;-77
2021/08/18 08:32:21;;;;;;;1.83;1.42;;;18.80;80.20;;;;;;4985314;28;20030;-79
2021/08/18 08:34:47;;;;;;;2.10;1.52;;;18.90;80.20;;;;;;4983993;28;20465;-77
2021/08/18 08:37:12;;;;;;;3.17;1.60;;;18.90;80.10;;;;;;4983563;28;20101;-78
2021/08/18 08:39:38;;;;;;;2.38;1.77;;;19.00;79.90;;;;;;4986469;28;20092;-78
2021/08/18 08:42:05;;;;;;;2.00;1.67;;;19.00;79.70;;;;;;4980117;28;20117;-77
2021/08/18 08:44:32;;;;;;;1.60;1.50;;;19.10;79.60;;;;;;4983238;28;20089;-78
2021/08/18 08:46:59;;;;;;;2.90;1.83;;;19.30;79.50;;;;;;4985755;28;20030;-78
2021/08/18 08:49:25;;;;;;;1.30;1.10;;;19.30;79.30;;;;;;4983353;28;20026;-80
2021/08/18 08:51:53;;;;;;;2.53;1.70;;;19.50;79.20;;;;;;4985128;28;20038;-77
2021/08/18 08:54:20;;;;;;;2.13;1.60;;;19.50;79.10;;;;;;4993644;28;20428;-80
2021/08/18 08:56:46;;;;;;;3.42;1.77;;;19.60;79.00;;;;;;4974527;28;20405;-78
2021/08/18 08:59:12;;;;;;;1.65;1.50;;;19.70;78.80;;;;;;4992280;28;20034;-79
2021/08/18 09:02:01;;;;;;;2.50;1.95;;;19.70;78.70;;;;;;4993504;28;20046;-78
2021/08/18 09:04:31;;;;;;;2.30;2.10;;;19.70;78.80;;;;;;4994162;28;20027;-78
2021/08/18 09:07:09;;;;;;;2.75;1.90;;;19.70;78.70;;;;;;4990785;28;20025;-77
2021/08/18 09:09:36;;;;;;;1.75;1.65;;;19.70;78.80;;;;;;4991933;28;20632;-77
2021/08/18 09:12:13;;;;;;;2.10;1.90;;;19.90;78.80;;;;;;4976892;28;20481;-77
2021/08/18 09:14:40;;;;;;;1.75;1.55;;;19.90;78.60;;;;;;4974972;28;20035;-79
2021/08/18 09:17:28;;;;;;;1.58;1.40;;;19.90;78.50;;;;;;4988140;28;20030;-82
2021/08/18 09:20:15;;;;;;;2.60;2.00;;;20.00;78.30;;;;;;4994648;28;20552;-76
2021/08/18 09:22:55;;;;;;;3.30;2.03;;;20.20;78.40;;;;;;4990340;28;20031;-78
2021/08/18 09:25:28;;;;;;;2.60;1.75;;;20.20;78.10;;;;;;4992360;28;20038;-79
2021/08/18 09:27:55;;;;;;;3.17;2.33;;;20.30;78.10;;;;;;4984220;28;20378;-76
2021/08/18 09:30:34;;;;;;;3.67;2.28;;;20.20;77.80;;;;;;4990755;28;20062;-79
2021/08/18 09:33:07;;;;;;;3.90;2.30;;;20.20;77.70;;;;;;4989566;28;20469;-75
2021/08/18 09:35:33;;;;;;;2.17;1.98;;;20.20;77.50;;;;;;4992905;28;20389;-80
2021/08/18 09:38:04;;;;;;;4.28;1.75;;;20.30;77.50;;;;;;4992684;28;20018;-77
2021/08/18 09:40:35;;;;;;;3.08;2.05;;;20.40;77.50;;;;;;4989118;28;20042;-77
2021/08/18 09:43:24;;;;;;;5.10;2.40;;;20.50;77.20;;;;;;4987461;28;20385;-78
2021/08/18 09:46:02;;;;;;;3.85;2.40;;;20.50;77.20;;;;;;4990095;28;20463;-77
2021/08/18 09:48:32;;;;;;;3.55;2.72;;;20.60;77.10;;;;;;4986214;28;20027;-78
2021/08/18 09:50:59;;;;;;;3.38;2.50;;;20.60;76.80;;;;;;4984267;28;20023;-76
2021/08/18 09:53:36;;;;;;;2.80;2.28;;;20.60;76.80;;;;;;4990262;28;20065;-75
2021/08/18 09:56:07;;;;;;;4.15;2.65;;;20.80;76.80;;;;;;5004005;28;20404;-78
2021/08/18 09:58:34;;;;;;;3.88;2.83;;;20.80;76.50;;;;;;4981908;28;20097;-77
2021/08/18 10:01:03;;;;;;;2.55;2.17;;;20.90;76.30;;;;;;4988844;28;20460;-76
2021/08/18 10:03:31;;;;;;;3.05;2.63;;;21.10;76.10;;;;;;4991946;28;20464;-78
2021/08/18 10:06:00;;;;;;;2.88;2.50;;;21.10;75.70;;;;;;4987722;28;20041;-79
2021/08/18 10:08:26;;;;;;;3.88;3.20;;;21.20;75.40;;;;;;4988745;28;20042;-77
2021/08/18 10:10:52;;;;;;;4.85;3.58;;;21.10;75.10;;;;;;4987416;28;20026;-77
2021/08/18 10:13:20;;;;;;;4.03;3.20;;;21.10;75.00;;;;;;4991152;28;20026;-80
2021/08/18 10:15:46;;;;;;;3.45;3.05;;;21.30;75.00;;;;;;4987666;28;20038;-79
2021/08/18 10:18:30;;;;;;;4.78;3.58;;;21.30;74.70;;;;;;4990674;28;20370;-77
2021/08/18 10:21:06;;;;;;;4.30;3.90;;;21.50;74.60;;;;;;4990723;28;20044;-78
2021/08/18 10:23:46;;;;;;;5.82;5.22;;;21.60;74.20;;;;;;4997113;28;20025;-78
2021/08/18 10:26:33;;;;;;;6.53;5.93;;;21.60;73.40;;;;;;4996856;28;20046;-77
2021/08/18 10:29:05;;;;;;;5.97;5.13;;;21.50;73.10;;;;;;4986596;28;20027;-78
2021/08/18 10:31:46;;;;;;;4.80;4.38;;;21.40;73.20;;;;;;4989351;28;20030;-76
2021/08/18 10:34:37;;;;;;;5.32;4.82;;;21.40;73.40;;;;;;4988556;28;20030;-78
2021/08/18 10:37:12;;;;;;;6.22;5.45;;;21.30;73.40;;;;;;4994890;28;20026;-79
2021/08/18 10:39:43;;;;;;;5.45;4.93;;;21.10;73.60;;;;;;4980579;28;20042;-79
2021/08/18 10:42:17;;;;;;;4.40;4.00;;;21.10;73.80;;;;;;4992142;28;20034;-77
2021/08/18 10:44:55;;;;;;;5.60;4.05;;;20.90;74.00;;;;;;4986861;28;20027;-77
2021/08/18 10:47:39;;;;;;;4.95;4.53;;;21.00;74.30;;;;;;4993837;28;20036;-79
2021/08/18 10:50:26;;;;;;;4.47;4.05;;;21.00;74.30;;;;;;4982999;28;20105;-77
2021/08/18 10:52:53;;;;;;;3.60;3.22;;;21.00;74.30;;;;;;4984646;28;20034;-79
2021/08/18 10:55:24;;;;;;;4.97;4.38;;;21.10;74.30;;;;;;4986955;28;20041;-78
2021/08/18 10:57:55;;;;;;;4.90;4.07;;;21.10;74.30;;;;;;4990263;28;20053;-78
2021/08/18 11:00:40;;;;;;;4.60;3.92;;;21.00;74.00;;;;;;4987607;28;20041;-78
2021/08/18 11:03:18;;;;;;;5.35;4.45;;;20.90;74.10;;;;;;4987609;28;20117;-79
2021/08/18 11:05:51;;;;;;;5.38;3.95;;;20.80;74.10;;;;;;4987352;28;20084;-79
2021/08/18 11:08:26;;;;;;;4.97;4.47;;;20.70;74.30;;;;;;4989742;28;20512;-77
2021/08/18 11:10:53;;;;;;;7.88;4.97;;;20.60;74.50;;;;;;4981250;28;20030;-77
2021/08/18 11:14:05;;;;;;;4.45;4.05;;;20.40;74.80;;;;;;4987327;28;20038;-77
2021/08/18 11:16:32;;;;;;;4.22;3.83;;;20.10;75.30;;;;;;4985378;28;20026;-79
2021/08/18 11:18:59;;;;;;;3.20;2.90;;;19.80;76.20;;;;;;4987422;28;20465;-79
2021/08/18 11:21:28;;;;;;;3.13;2.83;;;19.70;76.80;;;;;;4988719;28;20042;-81
2021/08/18 11:24:01;;;;;;;3.35;3.05;;;19.70;77.10;;;;;;4979913;28;20060;-78
2021/08/18 11:26:30;;;;;;;3.58;3.10;;;19.70;77.30;;;;;;4986128;28;20041;-80
2021/08/18 11:29:04;;;;;;;2.72;2.53;;;19.80;77.30;;;;;;4984864;28;20481;-79
2021/08/18 11:31:32;;;;;;;3.65;2.97;;;19.90;77.10;;;;;;4985968;28;20026;-77
2021/08/18 11:33:58;;;;;;;4.80;2.80;;;20.10;76.90;;;;;;4988765;28;20018;-78
2021/08/18 11:36:24;;;;;;;3.55;2.55;;;20.20;76.70;;;;;;4987620;28;20114;-79
2021/08/18 11:39:00;;;;;;;3.67;2.95;;;20.40;76.50;;;;;;4984663;28;20116;-78
2021/08/18 11:41:37;;;;;;;2.60;2.35;;;20.50;77.20;;;;;;4987579;28;20038;-77
2021/08/18 11:44:03;;;;;;;4.07;3.63;;;20.60;76.30;;;;;;4987517;28;20470;-79
2021/08/18 11:46:30;;;;;;;3.55;2.88;;;20.60;76.40;;;;;;4983479;28;20045;-77
2021/08/18 11:49:07;;;;;;;3.78;3.38;;;20.80;76.30;;;;;;4985555;28;20026;-77
2021/08/18 11:51:33;;;;;;;3.38;2.60;;;20.80;76.00;;;;;;4984112;28;20470;-77
2021/08/18 11:53:58;;;;;;;3.10;2.80;;;20.90;75.90;;;;;;5000068;28;20026;-77
2021/08/18 11:56:26;;;;;;;3.42;2.97;;;21.00;75.80;;;;;;4988957;28;20053;-80
2021/08/18 11:59:03;;;;;;;3.50;3.20;;;21.00;75.70;;;;;;4986984;28;20124;-79
2021/08/18 12:01:29;;;;;;;3.22;2.70;;;20.90;75.70;;;;;;4984231;28;20579;-78
2021/08/18 12:03:56;;;;;;;3.92;3.42;;;20.90;75.90;;;;;;4981284;28;20422;-81
2021/08/18 12:06:36;;;;;;;3.60;3.30;;;20.90;75.70;;;;;;4983461;28;20105;-79
2021/08/18 12:09:20;;;;;;;4.57;3.20;;;20.80;75.50;;;;;;4987039;28;20049;-78
2021/08/18 12:12:03;;;;;;;4.00;3.38;;;20.80;75.30;;;;;;4980483;28;20397;-80
2021/08/18 12:14:40;;;;;;;3.53;3.17;;;20.80;75.20;;;;;;4987908;28;20026;-79
2021/08/18 12:17:10;;;;;;;3.38;3.00;;;20.90;75.10;;;;;;4983915;28;20564;-81
2021/08/18 12:19:46;;;;;;;4.53;2.88;;;20.90;75.10;;;;;;4989208;28;20422;-79
2021/08/18 12:22:16;;;;;;;4.38;3.88;;;20.80;75.20;;;;;;4988372;28;20393;-80
2021/08/18 12:24:53;;;;;;;7.20;5.20;;;20.70;75.40;;;;;;4982534;28;20049;-80
2021/08/18 12:27:22;;;;;;;4.43;3.78;;;20.70;75.70;;;;;;4985623;28;20042;-78
2021/08/18 12:29:59;;;;;;;4.40;4.00;;;20.70;75.70;;;;;;4986017;28;20109;-78
2021/08/18 12:32:24;;;;;;;6.68;5.97;;;20.90;75.70;;;;;;4988843;28;20025;-80
2021/08/18 12:34:59;;;;;;;5.82;4.95;;;20.90;75.60;;;;;;4988206;28;20029;-78
2021/08/18 12:37:30;;;;;;;4.45;4.05;;;21.10;75.40;;;;;;4984266;28;20027;-79
2021/08/18 12:40:01;;;;;;;6.38;4.50;;;21.20;75.90;;;;;;4987992;28;20034;-78
2021/08/18 12:42:36;;;;;;;6.22;5.10;;;21.40;74.90;;;;;;4989200;28;20649;-77
2021/08/18 12:45:02;;;;;;;7.13;6.38;;;21.40;74.60;;;;;;4986470;28;20026;-76
2021/08/18 12:47:39;;;;;;;6.05;5.38;;;21.30;74.60;;;;;;4984785;28;20049;-77
2021/08/18 12:50:07;;;;;;;7.75;6.32;;;21.20;74.70;;;;;;4985539;28;20497;-77
2021/08/18 12:52:32;;;;;;;4.82;4.32;;;21.10;74.80;;;;;;4988290;28;20057;-77